Time;durP1;ratioP1;P1;durP2;ratioP2;P2;SDS_P1;SDS_P2;PMS_P1;PMS_P2;Temp;Humidity;BMP_temperature;BMP_pressure;BME280_temperature;BME280_humidity;BME280_pressure;Samples;Min_cycle;Max_cycle;Signal;HPM_P1;HPM_P2
2023/09/07 00:01:57;;;;;;;12.65;9.70;;;;;;;-143.21;67.92;71790.59;5069150;28;20638;-80
2023/09/07 00:04:23;;;;;;;13.35;9.23;;;;;;;-143.21;67.71;71792.59;5068501;28;20240;-81
2023/09/07 00:06:50;;;;;;;15.70;9.55;;;;;;;-143.21;67.76;71794.56;5069596;28;20236;-81
2023/09/07 00:09:18;;;;;;;13.65;9.95;;;;;;;-143.21;67.48;71796.56;5068120;28;20198;-81
2023/09/07 00:11:47;;;;;;;14.00;9.57;;;;;;;-143.21;67.33;71798.53;5067412;28;20197;-82
2023/09/07 00:14:13;;;;;;;12.52;9.25;;;;;;;-143.21;67.11;71800.53;5068678;28;20676;-81
2023/09/07 00:16:40;;;;;;;12.85;9.88;;;;;;;-143.21;67.01;71810.44;5068678;28;20742;-81
2023/09/07 00:19:07;;;;;;;13.30;9.32;;;;;;;-143.21;66.94;71808.44;5068185;28;20652;-80
2023/09/07 00:21:34;;;;;;;12.65;9.27;;;;;;;-143.21;67.13;71808.44;5068472;28;20205;-81
2023/09/07 00:24:05;;;;;;;13.80;9.65;;;;;;;-143.21;67.19;71812.41;5069359;28;20220;-79
2023/09/07 00:26:32;;;;;;;19.58;9.95;;;;;;;-143.21;67.49;71816.38;5065248;28;20629;-79
2023/09/07 00:29:00;;;;;;;14.98;9.93;;;;;;;-143.21;67.37;71784.66;5068657;28;20221;-79
2023/09/07 00:31:26;;;;;;;14.25;9.43;;;;;;;-143.21;67.11;71776.72;5068948;28;20205;-79
2023/09/07 00:33:53;;;;;;;12.18;8.98;;;;;;;-143.21;67.00;71778.72;5068830;28;20676;-80
2023/09/07 00:36:20;;;;;;;15.32;10.18;;;;;;;-143.21;67.14;71778.72;5068342;28;20217;-79
2023/09/07 00:38:47;;;;;;;13.15;10.30;;;;;;;-143.21;67.37;71780.69;5067417;28;20635;-79
2023/09/07 00:41:14;;;;;;;13.63;10.55;;;;;;;-143.21;67.66;71784.66;5068069;28;20847;-79
2023/09/07 00:43:41;;;;;;;13.70;10.48;;;;;;;-143.21;68.05;71788.63;5068060;28;20205;-79
2023/09/07 00:46:10;;;;;;;13.60;9.80;;;;;;;-143.21;68.40;71798.53;5067945;28;20658;-79
2023/09/07 00:48:37;;;;;;;15.07;10.73;;;;;;;-143.21;68.61;71798.53;5068166;28;20708;-79
2023/09/07 00:51:04;;;;;;;15.18;10.20;;;;;;;-143.21;68.82;71818.38;5067774;28;20230;-79
2023/09/07 00:53:31;;;;;;;12.15;10.05;;;;;;;-143.21;69.01;71812.41;5064230;28;20201;-79
2023/09/07 00:55:58;;;;;;;12.77;10.15;;;;;;;-143.21;69.05;71816.38;5066627;28;20241;-79
2023/09/07 00:58:25;;;;;;;11.95;10.45;;;;;;;-143.21;69.11;71820.34;5066910;28;20216;-79
2023/09/07 01:00:52;;;;;;;19.02;10.80;;;;;;;-143.21;69.25;71812.41;5068678;28;20221;-79
2023/09/07 01:03:20;;;;;;;12.95;9.98;;;;;;;-143.21;69.50;71818.38;5068418;28;21732;-78
2023/09/07 01:05:53;;;;;;;12.68;10.05;;;;;;;-143.21;69.64;71816.38;5067151;28;20208;-78
2023/09/07 01:08:26;;;;;;;16.98;10.65;;;;;;;-143.21;69.53;71798.53;5066473;28;20236;-78
2023/09/07 01:10:53;;;;;;;18.10;10.73;;;;;;;-143.21;69.23;71788.63;5064917;28;21636;-78
2023/09/07 01:13:20;;;;;;;16.80;11.23;;;;;;;-143.21;69.26;71788.63;5064114;28;20241;-78
2023/09/07 01:15:47;;;;;;;15.82;11.00;;;;;;;-143.21;69.21;71790.59;5067863;28;20306;-79
2023/09/07 01:18:15;;;;;;;13.90;11.00;;;;;;;-143.21;69.38;71800.53;5067574;28;20205;-79
2023/09/07 01:20:45;;;;;;;13.98;11.18;;;;;;;-143.21;69.65;71810.44;5067384;28;20201;-79
2023/09/07 01:23:13;;;;;;;14.98;11.13;;;;;;;-143.21;70.29;71826.28;5067431;28;20208;-79
2023/09/07 01:25:41;;;;;;;17.42;11.95;;;;;;;-143.21;70.97;71842.16;5067126;28;20206;-79
2023/09/07 01:28:08;;;;;;;14.27;11.23;;;;;;;-143.21;70.97;71844.16;5067667;28;20232;-79
2023/09/07 01:30:36;;;;;;;16.70;11.68;;;;;;;-143.21;71.25;71852.06;5067857;28;20582;-79
2023/09/07 01:33:04;;;;;;;15.30;11.48;;;;;;;-143.21;71.57;71856.03;5068364;28;20251;-78
2023/09/07 01:35:34;;;;;;;14.93;12.15;;;;;;;-143.21;71.89;71860.00;5066855;28;20653;-79
2023/09/07 01:38:01;;;;;;;16.40;12.02;;;;;;;-143.21;72.20;71867.94;5067968;28;20296;-78
2023/09/07 01:40:29;;;;;;;19.67;12.80;;;;;;;-143.21;72.18;71865.97;5068279;28;20204;-78
2023/09/07 01:42:56;;;;;;;20.77;12.80;;;;;;;-143.21;72.54;71860.00;5067651;28;20201;-79
2023/09/07 01:45:23;;;;;;;16.25;12.38;;;;;;;-143.21;72.23;71844.16;5067136;28;20209;-78
2023/09/07 01:47:50;;;;;;;17.88;12.07;;;;;;;-143.21;71.61;71824.31;5066958;28;20860;-78
2023/09/07 01:50:17;;;;;;;18.00;12.48;;;;;;;-143.21;71.41;71820.34;5070000;28;20209;-78
2023/09/07 01:52:46;;;;;;;19.42;12.75;;;;;;;-143.21;71.39;71830.25;5070759;28;20197;-79
2023/09/07 01:55:13;;;;;;;19.83;13.25;;;;;;;-143.21;72.00;71846.13;5068414;28;20205;-79
2023/09/07 01:57:41;;;;;;;19.73;13.85;;;;;;;-143.21;72.75;71856.03;5071586;28;20263;-80
2023/09/07 02:00:09;;;;;;;16.38;12.85;;;;;;;-143.21;73.52;71877.84;5070912;28;20197;-79
2023/09/07 02:02:36;;;;;;;16.88;13.15;;;;;;;-143.21;74.43;71893.72;5069186;28;20311;-89
2023/09/07 02:05:03;;;;;;;16.35;13.07;;;;;;;-143.21;74.74;71895.69;5072526;28;20236;-87
2023/09/07 02:07:30;;;;;;;19.83;13.43;;;;;;;-143.21;74.88;71905.63;5069448;28;20784;-88
2023/09/07 02:09:57;;;;;;;17.08;13.52;;;;;;;-143.21;75.20;71903.63;5072130;28;20630;-84
2023/09/07 02:12:24;;;;;;;25.02;14.75;;;;;;;-143.21;75.43;71911.56;5072206;28;20229;-84
2023/09/07 02:14:52;;;;;;;19.77;14.07;;;;;;;-143.21;75.56;71917.50;5072007;28;20702;-84
2023/09/07 02:17:20;;;;;;;22.05;14.60;;;;;;;-143.21;75.62;71921.47;5071595;28;20212;-83
2023/09/07 02:19:47;;;;;;;17.95;13.70;;;;;;;-143.21;75.56;71915.53;5071612;28;20197;-84
2023/09/07 02:22:14;;;;;;;22.77;14.43;;;;;;;-143.21;75.60;71919.50;5071600;28;20212;-83
2023/09/07 02:24:41;;;;;;;20.13;13.80;;;;;;;-143.21;75.87;71921.47;5071454;28;20216;-87
2023/09/07 02:27:07;;;;;;;18.10;13.80;;;;;;;-143.21;75.35;71893.72;5072053;28;20232;-86
2023/09/07 02:29:34;;;;;;;23.40;14.70;;;;;;;-143.21;74.39;71871.91;5071635;28;20201;-86
2023/09/07 02:32:03;;;;;;;21.48;14.02;;;;;;;-143.21;73.88;71858.03;5071666;28;20700;-87
2023/09/07 02:34:30;;;;;;;19.73;13.93;;;;;;;-143.21;73.41;71848.09;5071614;28;20216;-87
2023/09/07 02:36:57;;;;;;;19.25;14.18;;;;;;;-143.21;73.41;71858.03;5070452;28;20197;-87
2023/09/07 02:39:26;;;;;;;20.50;15.18;;;;;;;-143.21;73.45;71865.97;5070673;28;20274;-87
2023/09/07 02:41:52;;;;;;;17.98;13.48;;;;;;;-143.21;73.66;71877.84;5072025;28;20205;-87
2023/09/07 02:44:20;;;;;;;19.25;14.15;;;;;;;-143.21;73.75;71869.91;5072306;28;20866;-87
2023/09/07 02:46:46;;;;;;;19.63;15.13;;;;;;;-143.21;73.77;71871.91;5071752;28;20197;-87
2023/09/07 02:49:15;;;;;;;19.70;14.40;;;;;;;-143.21;74.05;71877.84;5071646;28;20234;-87
2023/09/07 02:51:42;;;;;;;20.20;15.27;;;;;;;-143.21;74.26;71885.78;5072178;28;20201;-87
2023/09/07 02:54:09;;;;;;;18.02;14.90;;;;;;;-143.21;74.58;71883.81;5071613;28;20209;-87
2023/09/07 02:56:35;;;;;;;17.80;15.65;;;;;;;-143.21;74.74;71893.72;5071868;28;20263;-87
2023/09/07 02:59:02;;;;;;;20.10;14.88;;;;;;;-143.21;75.12;71899.66;5071982;28;20262;-87
2023/09/07 03:01:30;;;;;;;19.05;14.38;;;;;;;-143.21;75.25;71891.72;5070092;28;20201;-88
2023/09/07 03:03:57;;;;;;;18.88;14.68;;;;;;;-143.21;75.38;71903.63;5072022;28;21655;-87
2023/09/07 03:06:25;;;;;;;19.92;14.73;;;;;;;-143.21;75.56;71897.69;5072024;28;21646;-87
2023/09/07 03:08:52;;;;;;;22.02;15.43;;;;;;;-143.21;75.85;71909.56;5071285;28;20291;-87
2023/09/07 03:11:19;;;;;;;19.13;15.63;;;;;;;-143.21;75.80;71889.75;5072015;28;20209;-87
2023/09/07 03:13:46;;;;;;;20.80;15.40;;;;;;;-143.21;75.36;71871.91;5071504;28;20201;-87
2023/09/07 03:16:13;;;;;;;24.17;15.60;;;;;;;-143.21;75.23;71871.91;5071061;28;20208;-87
2023/09/07 03:18:40;;;;;;;20.90;15.10;;;;;;;-143.21;75.06;71883.81;5071605;28;20588;-87
2023/09/07 03:21:10;;;;;;;20.10;15.90;;;;;;;-143.21;75.13;71887.78;5071497;28;20216;-89
2023/09/07 03:23:44;;;;;;;25.95;15.95;;;;;;;-143.21;75.59;71883.81;5067775;28;20240;-85
2023/09/07 03:26:10;;;;;;;22.33;16.40;;;;;;;-143.21;75.93;71889.75;5069877;28;20556;-84
2023/09/07 03:28:37;;;;;;;22.10;16.38;;;;;;;-143.21;76.23;71899.66;5069231;28;20228;-89
2023/09/07 03:31:06;;;;;;;20.65;16.10;;;;;;;-143.21;76.69;71903.63;5070891;28;20220;-88
2023/09/07 03:33:33;;;;;;;20.45;15.88;;;;;;;-143.21;76.59;71915.53;5069759;28;20198;-89
2023/09/07 03:36:00;;;;;;;19.08;15.93;;;;;;;-143.21;77.23;71911.56;5071716;28;20213;-89
2023/09/07 03:38:26;;;;;;;22.27;16.77;;;;;;;-143.21;77.44;71917.50;5071260;28;20205;-88
2023/09/07 03:40:55;;;;;;;22.08;16.95;;;;;;;-143.21;77.54;71917.50;5069784;28;20205;-89
2023/09/07 03:43:22;;;;;;;21.83;17.35;;;;;;;-143.21;77.57;71917.50;5070924;28;20209;-87
2023/09/07 03:45:49;;;;;;;21.50;16.88;;;;;;;-143.21;77.98;71925.44;5070842;28;20210;-88
2023/09/07 03:48:16;;;;;;;26.45;17.15;;;;;;;-143.21;78.40;71933.38;5070684;28;20286;-87
2023/09/07 03:50:43;;;;;;;25.35;17.33;;;;;;;-143.21;78.79;71937.34;5069888;28;20251;-88
2023/09/07 03:53:10;;;;;;;26.08;17.75;;;;;;;-143.21;78.88;71937.34;5069884;28;20209;-87
2023/09/07 03:55:41;;;;;;;21.52;17.52;;;;;;;-143.21;79.26;71927.44;5071109;28;20201;-87
2023/09/07 03:58:11;;;;;;;23.80;17.98;;;;;;;-143.21;78.85;71915.53;5070944;28;20225;-87
2023/09/07 04:00:39;;;;;;;21.88;17.60;;;;;;;-143.21;78.73;71913.53;5070431;28;20208;-89
2023/09/07 04:03:06;;;;;;;29.00;17.95;;;;;;;-143.21;79.00;71921.47;5069065;28;20225;-87
2023/09/07 04:05:33;;;;;;;24.15;18.10;;;;;;;-143.21;79.32;71933.38;5068338;28;20318;-87
2023/09/07 04:08:00;;;;;;;21.58;18.27;;;;;;;-143.21;79.44;71943.28;5065615;28;20229;-87
2023/09/07 04:10:27;;;;;;;27.73;18.17;;;;;;;-143.21;79.90;71945.28;5069615;28;20247;-87
2023/09/07 04:12:54;;;;;;;22.42;18.27;;;;;;;-143.21;79.93;71953.19;5069585;28;20770;-87
2023/09/07 04:15:22;;;;;;;24.00;17.33;;;;;;;-143.21;80.12;71957.16;5069945;28;20205;-89
2023/09/07 04:17:51;;;;;;;27.98;18.77;;;;;;;-143.21;80.01;71955.19;5070400;28;20202;-90
2023/09/07 04:20:18;;;;;;;24.02;18.00;;;;;;;-143.21;80.18;71953.19;5071530;28;20209;-90
2023/09/07 04:22:44;;;;;;;23.63;18.30;;;;;;;-143.21;80.50;71961.13;5070130;28;20217;-90
2023/09/07 04:25:11;;;;;;;23.45;18.50;;;;;;;-143.21;80.89;71957.16;5070642;28;20200;-90
2023/09/07 04:27:38;;;;;;;26.65;18.80;;;;;;;-143.21;81.04;71959.16;5070465;28;20212;-90
2023/09/07 04:30:06;;;;;;;25.77;19.33;;;;;;;-143.21;81.03;71965.09;5071106;28;20197;-86
2023/09/07 04:32:34;;;;;;;25.20;18.83;;;;;;;-143.21;81.42;71971.06;5069620;28;20212;-87
2023/09/07 04:35:01;;;;;;;23.27;18.38;;;;;;;-143.21;81.13;71967.09;5066549;28;20671;-86
2023/09/07 04:37:28;;;;;;;25.30;18.23;;;;;;;-143.21;80.87;71957.16;5069779;28;20307;-86
2023/09/07 04:39:55;;;;;;;23.55;18.38;;;;;;;-143.21;80.71;71965.09;5069582;28;20674;-86
2023/09/07 04:42:22;;;;;;;23.92;19.25;;;;;;;-143.21;80.73;71969.06;5069471;28;20205;-86
2023/09/07 04:44:49;;;;;;;24.90;18.33;;;;;;;-143.21;80.29;71967.09;5069759;28;20197;-86
2023/09/07 04:47:16;;;;;;;23.90;17.90;;;;;;;-143.21;79.81;71961.13;5069555;28;20548;-86
2023/09/07 04:49:50;;;;;;;25.85;18.10;;;;;;;-143.21;79.25;71947.25;5069691;28;20316;-85
2023/09/07 04:52:17;;;;;;;25.35;16.75;;;;;;;-143.21;78.59;71927.44;5071479;28;20258;-85
2023/09/07 04:54:44;;;;;;;25.63;18.20;;;;;;;-143.21;78.15;71933.38;5070042;28;20201;-86
2023/09/07 04:57:11;;;;;;;25.23;18.80;;;;;;;-143.21;79.05;71957.16;5069210;28;20201;-85
2023/09/07 04:59:38;;;;;;;25.77;18.98;;;;;;;-143.21;79.46;71975.00;5069297;28;20193;-85
2023/09/07 05:02:05;;;;;;;28.98;19.20;;;;;;;-143.21;79.73;71984.94;5067533;28;20270;-85
2023/09/07 05:04:32;;;;;;;28.88;18.95;;;;;;;-143.21;79.74;71977.00;5069041;28;20272;-86
2023/09/07 05:07:00;;;;;;;24.38;19.30;;;;;;;-143.21;80.24;71978.97;5068792;28;20202;-86
2023/09/07 05:09:29;;;;;;;29.77;19.35;;;;;;;-143.21;80.55;71994.84;5068328;28;20233;-86
2023/09/07 05:11:55;;;;;;;28.92;19.55;;;;;;;-143.21;80.50;71984.94;5069397;28;20201;-86
2023/09/07 05:14:22;;;;;;;24.92;18.35;;;;;;;-143.21;80.40;71986.91;5070047;28;20232;-92
2023/09/07 05:16:49;;;;;;;26.52;18.52;;;;;;;-143.21;80.35;71988.91;5071324;28;20206;-91
2023/09/07 05:19:16;;;;;;;25.92;18.27;;;;;;;-143.21;80.39;71984.94;5069554;28;20228;-90
2023/09/07 05:21:43;;;;;;;26.35;19.17;;;;;;;-143.21;80.96;71992.88;5069698;28;20212;-89
2023/09/07 05:24:15;;;;;;;22.83;18.45;;;;;;;-143.21;81.58;71996.81;5070046;28;20561;-83
2023/09/07 05:26:43;;;;;;;27.83;18.85;;;;;;;-143.21;81.76;72006.75;5072597;28;20211;-85
2023/09/07 05:29:10;;;;;;;27.42;18.33;;;;;;;-143.21;81.99;72012.69;5072200;28;20221;-84
2023/09/07 05:31:37;;;;;;;24.67;18.65;;;;;;;-143.21;81.45;71986.91;5071925;28;20294;-83
2023/09/07 05:34:04;;;;;;;24.45;17.77;;;;;;;-143.21;79.76;71955.19;5068893;28;20204;-84
2023/09/07 05:36:31;;;;;;;30.90;18.60;;;;;;;-143.21;79.15;71949.25;5071738;28;20216;-82
2023/09/07 05:38:59;;;;;;;25.70;17.88;;;;;;;-143.21;78.63;71949.25;5069062;28;20197;-84
2023/09/07 05:41:27;;;;;;;26.65;17.48;;;;;;;-143.21;78.66;71957.16;5071755;28;20207;-84
2023/09/07 05:43:54;;;;;;;23.65;17.45;;;;;;;-143.21;78.87;71961.13;5074837;28;20210;-85
2023/09/07 05:46:21;;;;;;;26.00;16.98;;;;;;;-143.21;78.77;71971.06;5072091;28;20217;-84
2023/09/07 05:48:47;;;;;;;23.95;17.98;;;;;;;-143.21;78.82;71971.06;5072313;28;20233;-85
2023/09/07 05:51:14;;;;;;;23.73;17.05;;;;;;;-143.21;78.53;71973.03;5072455;28;20201;-84
2023/09/07 05:53:41;;;;;;;25.85;16.88;;;;;;;-143.21;78.59;71969.06;5072398;28;20645;-85
2023/09/07 05:56:11;;;;;;;19.92;15.85;;;;;;;-143.21;78.00;71977.00;5072914;28;20205;-85
2023/09/07 05:58:39;;;;;;;21.65;17.10;;;;;;;-143.21;78.12;71978.97;5072381;28;20216;-84
2023/09/07 06:01:06;;;;;;;24.48;16.88;;;;;;;-143.21;78.50;71988.91;5072138;28;20251;-84
2023/09/07 06:03:34;;;;;;;20.38;16.75;;;;;;;-143.21;78.59;71982.94;5069479;28;20662;-84
2023/09/07 06:06:07;;;;;;;23.83;16.98;;;;;;;-143.21;78.10;71949.25;5073026;28;20258;-83
2023/09/07 06:08:34;;;;;;;23.73;16.15;;;;;;;-143.21;77.00;71931.38;5069169;28;20291;-84
2023/09/07 06:11:01;;;;;;;21.17;17.52;;;;;;;-143.21;76.37;71929.41;5072131;28;20204;-85
2023/09/07 06:13:28;;;;;;;29.83;17.05;;;;;;;-143.21;76.69;71929.41;5083921;28;20284;-85
2023/09/07 06:16:00;;;;;;;26.35;16.52;;;;;;;-143.21;77.04;71927.44;5086236;28;20209;-84
2023/09/07 06:18:27;;;;;;;27.38;17.92;;;;;;;-143.21;76.90;71927.44;5086413;28;20200;-85
2023/09/07 06:20:54;;;;;;;27.80;17.25;;;;;;;-143.21;76.99;71943.28;5080523;28;20706;-84
2023/09/07 06:23:20;;;;;;;24.25;16.80;;;;;;;-143.21;77.45;71941.31;5074795;28;20212;-85
2023/09/07 06:25:47;;;;;;;21.10;16.27;;;;;;;-143.21;76.48;71943.28;5074153;28;20234;-85
2023/09/07 06:28:14;;;;;;;30.35;15.60;;;;;;;-143.21;75.98;71929.41;5073993;28;20205;-84
2023/09/07 06:30:41;;;;;;;22.83;16.13;;;;;;;-143.21;75.54;71925.44;5072831;28;20205;-83
2023/09/07 06:33:09;;;;;;;20.73;13.40;;;;;;;-143.21;74.67;71911.56;5072476;28;20289;-80
2023/09/07 06:35:36;;;;;;;26.17;13.93;;;;;;;-143.21;74.51;71881.81;5069946;28;20217;-85
2023/09/07 06:38:03;;;;;;;21.25;14.35;;;;;;;-143.21;74.14;71875.88;5072630;28;20259;-84
2023/09/07 06:40:40;;;;;;;17.63;13.85;;;;;;;-143.21;73.38;71850.09;5072079;28;20219;-80
2023/09/07 06:43:07;;;;;;;21.75;14.15;;;;;;;-143.21;70.55;71796.56;5069809;28;20197;-82
2023/09/07 06:45:35;;;;;;;17.27;11.95;;;;;;;-143.21;69.27;71770.78;5075365;28;20200;-80
2023/09/07 06:48:03;;;;;;;20.02;12.70;;;;;;;-143.21;68.44;71743.00;5067590;28;20562;-80
2023/09/07 06:50:31;;;;;;;19.35;12.23;;;;;;;-143.21;68.17;71746.97;5070715;28;20275;-80
2023/09/07 06:52:58;;;;;;;19.50;12.85;;;;;;;-143.21;67.56;71733.09;5070875;28;20684;-81
2023/09/07 06:55:25;;;;;;;18.50;12.60;;;;;;;-143.21;67.82;71735.09;5070367;28;20205;-81
2023/09/07 06:57:52;;;;;;;17.20;13.18;;;;;;;-143.21;67.94;71729.13;5071085;28;20300;-80
2023/09/07 07:00:19;;;;;;;24.42;12.52;;;;;;;-143.21;68.02;71727.16;5071293;28;20595;-82
2023/09/07 07:02:45;;;;;;;18.60;11.10;;;;;;;-143.21;67.43;71725.16;5071034;28;20255;-81
2023/09/07 07:05:12;;;;;;;17.38;11.48;;;;;;;-143.21;67.21;71731.13;5070587;28;20595;-81
2023/09/07 07:07:40;;;;;;;15.57;11.10;;;;;;;-143.21;67.34;71723.19;5070176;28;20639;-81
2023/09/07 07:10:09;;;;;;;15.88;11.85;;;;;;;-143.21;66.97;71717.25;5070697;28;20225;-82
2023/09/07 07:12:38;;;;;;;13.20;11.10;;;;;;;-143.21;66.80;71715.25;5075665;28;20201;-82
2023/09/07 07:15:07;;;;;;;18.45;11.25;;;;;;;-143.21;66.00;71707.31;5071423;28;20185;-82
2023/09/07 07:17:34;;;;;;;19.33;13.55;;;;;;;-143.21;65.90;71705.34;5067874;28;20201;-81
2023/09/07 07:20:01;;;;;;;17.15;12.30;;;;;;;-143.21;65.79;71697.41;5071644;28;20201;-82
2023/09/07 07:22:28;;;;;;;17.20;12.57;;;;;;;-143.21;65.10;71695.44;5070705;28;20237;-78
2023/09/07 07:24:57;;;;;;;18.20;11.32;;;;;;;-143.21;64.43;71687.50;5071045;28;20251;-83
2023/09/07 07:27:24;;;;;;;19.42;10.93;;;;;;;-143.21;63.53;71691.47;5070469;28;20209;-84
2023/09/07 07:29:52;;;;;;;12.48;9.80;;;;;;;-143.21;62.99;71667.66;5070792;28;20241;-79
2023/09/07 07:32:18;;;;;;;12.82;9.40;;;;;;;-143.21;62.40;71639.91;5069450;28;20284;-84
2023/09/07 07:34:45;;;;;;;20.17;10.85;;;;;;;-143.21;61.14;71622.06;5070340;28;20209;-83
2023/09/07 07:37:12;;;;;;;16.73;10.45;;;;;;;-143.21;60.63;71608.19;5070310;28;20202;-83
2023/09/07 07:39:40;;;;;;;16.83;9.88;;;;;;;-143.21;61.91;71610.16;5071541;28;20197;-81
2023/09/07 07:42:08;;;;;;;15.50;10.30;;;;;;;-143.21;60.53;71610.16;5070119;28;20209;-81
2023/09/07 07:44:35;;;;;;;15.85;9.45;;;;;;;-143.21;61.02;71606.22;5070804;28;20648;-84
2023/09/07 07:47:02;;;;;;;16.83;11.10;;;;;;;-143.21;61.26;71616.13;5070884;28;20198;-82
2023/09/07 07:49:29;;;;;;;18.80;10.07;;;;;;;-143.21;61.47;71616.13;5070501;28;20667;-81
2023/09/07 07:52:08;;;;;;;13.95;9.05;;;;;;;-143.21;59.86;71626.03;5070844;28;20205;-83
2023/09/07 07:54:36;;;;;;;13.00;9.75;;;;;;;-143.21;60.99;71630.00;5066578;28;20204;-82
2023/09/07 07:57:03;;;;;;;16.77;9.93;;;;;;;-143.21;59.89;71631.97;5070208;28;20203;-82
2023/09/07 07:59:32;;;;;;;12.15;9.05;;;;;;;-143.21;58.89;71633.97;5070288;28;20194;-82
2023/09/07 08:01:59;;;;;;;10.27;8.13;;;;;;;-143.21;58.35;71635.94;5068393;28;20229;-81
2023/09/07 08:04:27;;;;;;;16.48;8.50;;;;;;;-143.21;58.45;71631.97;5069650;28;20283;-81
2023/09/07 08:06:58;;;;;;;12.88;8.88;;;;;;;-143.21;58.76;71626.03;5069929;28;20229;-81
2023/09/07 08:09:32;;;;;;;12.70;8.95;;;;;;;-143.21;59.37;71610.16;5069808;28;20233;-82
2023/09/07 08:12:02;;;;;;;13.95;7.40;;;;;;;-143.21;58.97;71600.25;5070510;28;20212;-82
2023/09/07 08:15:15;;;;;;;10.48;7.93;;;;;;;-143.21;58.06;71598.28;5071098;28;20194;-84
2023/09/07 08:17:43;;;;;;;11.57;8.05;;;;;;;-143.21;57.71;71598.28;5068935;28;20656;-82
2023/09/07 08:20:11;;;;;;;11.25;7.80;;;;;;;-143.21;58.29;71574.47;5066392;28;20198;-81
2023/09/07 08:22:40;;;;;;;18.80;8.02;;;;;;;-143.21;57.07;71560.59;5070301;28;20284;-88
2023/09/07 08:27:49;;;;;;;15.23;8.35;;;;;;;-143.21;56.02;71515.00;5064243;28;20223;-85
2023/09/07 08:30:22;;;;;;;17.02;8.52;;;;;;;-143.21;55.24;71491.22;5069247;28;20247;-81
2023/09/07 08:32:51;;;;;;;13.30;8.23;;;;;;;-143.21;54.63;71475.34;5069093;28;20228;-81
2023/09/07 08:35:18;;;;;;;13.90;8.30;;;;;;;-143.21;54.17;71453.53;5068814;28;20205;-81
2023/09/07 08:37:45;;;;;;;11.63;7.85;;;;;;;-143.21;53.59;71443.63;5068054;28;20602;-80
2023/09/07 08:40:12;;;;;;;14.98;8.25;;;;;;;-143.21;53.64;71443.63;5068247;28;20569;-81
2023/09/07 08:42:39;;;;;;;11.18;8.68;;;;;;;-143.21;52.91;71431.72;5068566;28;20660;-80
2023/09/07 08:45:08;;;;;;;11.10;7.63;;;;;;;-143.21;51.58;71421.81;5067346;28;20561;-80
2023/09/07 08:47:37;;;;;;;10.13;8.02;;;;;;;-143.21;51.28;71419.84;5064836;28;20227;-80
2023/09/07 08:50:07;;;;;;;12.68;7.88;;;;;;;-143.21;51.67;71405.94;5067825;28;20224;-80
2023/09/07 08:52:35;;;;;;;13.18;8.02;;;;;;;-143.21;51.10;71400.00;5069117;28;20280;-84
2023/09/07 08:55:04;;;;;;;9.38;7.30;;;;;;;-143.21;51.19;71405.94;5070165;28;20209;-84
2023/09/07 08:57:32;;;;;;;10.27;7.00;;;;;;;-143.21;50.80;71403.97;5067004;28;20196;-88
2023/09/07 08:59:59;;;;;;;12.18;7.53;;;;;;;-143.21;50.35;71402.00;5069549;28;20190;-85
2023/09/07 09:02:26;;;;;;;11.80;7.40;;;;;;;-143.21;50.49;71407.94;5075100;28;20239;-82
2023/09/07 09:04:54;;;;;;;11.88;7.70;;;;;;;-143.21;51.06;71407.94;5074405;28;20248;-84
2023/09/07 09:07:32;;;;;;;15.25;8.02;;;;;;;-143.21;50.88;71407.94;5072281;28;20287;-86
2023/09/07 09:10:05;;;;;;;10.95;7.82;;;;;;;-143.21;51.09;71409.91;5069342;28;20228;-84
2023/09/07 09:12:32;;;;;;;11.65;7.68;;;;;;;-143.21;51.27;71405.94;5070596;28;20666;-85
2023/09/07 09:15:00;;;;;;;15.43;8.02;;;;;;;-143.21;50.86;71384.16;5071346;28;20221;-84
2023/09/07 09:17:27;;;;;;;8.68;7.13;;;;;;;-143.21;49.44;71362.34;5073042;28;20224;-84
2023/09/07 09:19:53;;;;;;;11.80;7.32;;;;;;;-143.21;49.46;71354.41;5072451;28;20221;-85
2023/09/07 09:22:28;;;;;;;10.55;7.85;;;;;;;-143.21;49.63;71334.59;5070003;28;20627;-86
2023/09/07 09:24:56;;;;;;;12.32;7.78;;;;;;;-143.21;49.36;71336.56;5073452;28;20192;-86
2023/09/07 09:27:23;;;;;;;14.15;7.75;;;;;;;-143.21;49.31;71336.56;5073086;28;20224;-86
2023/09/07 09:29:51;;;;;;;9.60;7.60;;;;;;;-143.21;49.13;71304.84;5071590;28;20247;-86
2023/09/07 09:32:20;;;;;;;11.95;7.50;;;;;;;-143.21;48.79;71294.94;5072588;28;20406;-87
2023/09/07 09:34:47;;;;;;;9.95;7.20;;;;;;;-143.21;47.90;71271.13;5072927;28;20308;-85
2023/09/07 09:37:16;;;;;;;12.63;7.15;;;;;;;-143.21;47.40;71253.28;5072660;28;20197;-84
2023/09/07 09:39:53;;;;;;;26.73;7.30;;;;;;;-143.21;47.48;71273.13;5072531;28;20653;-85
2023/09/07 09:42:24;;;;;;;18.50;9.18;;;;;;;-143.21;47.51;71251.31;5071610;28;20220;-84
2023/09/07 09:44:53;;;;;;;17.08;7.53;;;;;;;-143.21;46.51;71243.38;5071390;28;20209;-82
2023/09/07 09:47:22;;;;;;;12.07;7.28;;;;;;;-143.21;46.13;71237.44;5071246;28;20255;-84
2023/09/07 09:49:51;;;;;;;19.90;12.07;;;;;;;-143.21;46.53;71217.59;5071547;28;20225;-85
2023/09/07 09:52:18;;;;;;;17.05;10.55;;;;;;;-143.21;46.06;71201.75;5071549;28;20201;-84
2023/09/07 09:54:47;;;;;;;12.57;8.45;;;;;;;-143.21;45.94;71189.84;5070371;28;20561;-86
2023/09/07 09:57:15;;;;;;;10.88;7.60;;;;;;;-143.21;45.72;71174.00;5073361;28;20194;-83
2023/09/07 09:59:43;;;;;;;12.43;7.55;;;;;;;-143.21;45.27;71156.16;5071692;28;20471;-86
2023/09/07 10:02:12;;;;;;;13.23;8.45;;;;;;;-143.21;45.00;71156.16;5071551;28;20324;-84
2023/09/07 10:04:39;;;;;;;14.55;9.63;;;;;;;-143.21;45.30;71168.06;5071863;28;20274;-83
2023/09/07 10:07:06;;;;;;;20.25;11.43;;;;;;;-143.21;45.54;71181.94;5068140;28;20556;-84
2023/09/07 10:09:34;;;;;;;20.05;12.05;;;;;;;-143.21;45.74;71195.81;5070983;28;20190;-85
2023/09/07 10:12:07;;;;;;;15.32;8.75;;;;;;;-143.21;45.83;71213.66;5072855;28;20710;-80
2023/09/07 10:14:40;;;;;;;15.73;10.25;;;;;;;-143.21;45.68;71233.47;5069857;28;20224;-82
2023/09/07 10:17:09;;;;;;;11.52;7.30;;;;;;;-143.21;46.26;71261.22;5072296;28;20667;-81
2023/09/07 10:19:38;;;;;;;10.40;6.68;;;;;;;-143.21;46.76;71279.06;5071697;28;20201;-81
2023/09/07 10:22:05;;;;;;;7.30;6.13;;;;;;;-143.21;46.91;71287.00;5072227;28;20270;-82
2023/09/07 10:24:35;;;;;;;10.63;6.32;;;;;;;-143.21;47.13;71296.91;5065093;28;20284;-85
2023/09/07 10:27:05;;;;;;;8.25;6.85;;;;;;;-143.21;47.35;71302.84;5072257;28;20220;-84
2023/09/07 10:29:42;;;;;;;13.80;7.40;;;;;;;-143.21;47.72;71308.81;5071738;28;20715;-84
2023/09/07 10:32:14;;;;;;;11.85;7.13;;;;;;;-143.21;48.24;71296.91;5070109;28;20664;-84
2023/09/07 10:34:43;;;;;;;14.00;8.20;;;;;;;-143.21;47.75;71288.97;5071502;28;20672;-83
2023/09/07 10:37:13;;;;;;;14.50;6.95;;;;;;;-143.21;47.61;71302.84;5071808;28;20209;-84
2023/09/07 10:39:42;;;;;;;8.20;6.60;;;;;;;-143.21;47.84;71302.84;5073482;28;20209;-81
2023/09/07 10:42:21;;;;;;;11.05;6.60;;;;;;;-143.21;47.66;71306.81;5072114;28;20263;-81
2023/09/07 10:44:50;;;;;;;9.43;7.10;;;;;;;-143.21;48.03;71320.69;5072012;28;20285;-81
2023/09/07 10:47:17;;;;;;;10.68;7.05;;;;;;;-143.21;48.35;71332.59;5070763;28;20209;-80
2023/09/07 10:49:44;;;;;;;13.00;7.22;;;;;;;-143.21;48.07;71334.59;5070048;28;20217;-82
2023/09/07 10:52:11;;;;;;;9.60;6.55;;;;;;;-143.21;47.78;71336.56;5070870;28;20197;-82
2023/09/07 10:54:38;;;;;;;9.10;6.40;;;;;;;-143.21;47.64;71350.44;5070214;28;20202;-82
2023/09/07 10:57:13;;;;;;;10.60;6.47;;;;;;;-143.21;48.16;71352.44;5070961;28;20585;-80
2023/09/07 11:02:26;;;;;;;10.82;6.93;;;;;;;-143.21;47.92;71346.47;5069410;28;20213;-83
2023/09/07 11:04:53;;;;;;;13.43;6.93;;;;;;;-143.21;48.00;71338.53;5071228;28;20252;-83
2023/09/07 11:07:35;;;;;;;10.82;7.18;;;;;;;-143.21;48.13;71332.59;5071416;28;20209;-83
2023/09/07 11:10:04;;;;;;;8.93;6.00;;;;;;;-143.21;48.39;71332.59;5068698;28;20221;-86
2023/09/07 11:12:39;;;;;;;11.10;6.63;;;;;;;-143.21;48.23;71340.53;5068136;28;20243;-84
2023/09/07 11:15:10;;;;;;;11.95;7.07;;;;;;;-143.21;48.92;71342.50;5068946;28;20201;-85